createdAt,value
2023-04-26T00:08:22.427Z,3.70
2023-04-26T00:18:49.483Z,4.00
2023-04-26T00:29:15.143Z,3.30
2023-04-26T00:39:40.998Z,3.70
2023-04-26T00:50:08.503Z,3.90
2023-04-26T01:00:34.307Z,3.60
2023-04-26T01:11:01.242Z,3.80
2023-04-26T01:21:27.416Z,3.40
2023-04-26T01:31:53.223Z,2.90
2023-04-26T01:42:19.035Z,3.30
2023-04-26T01:52:45.251Z,3.40
2023-04-26T02:03:11.776Z,3.50
2023-04-26T02:13:37.936Z,3.20
2023-04-26T02:24:03.683Z,3.00
2023-04-26T02:34:29.630Z,5.00
2023-04-26T02:45:03.504Z,4.40
2023-04-26T02:55:29.688Z,3.60
2023-04-26T03:05:55.351Z,3.30
2023-04-26T03:16:24.140Z,5.60
2023-04-26T03:26:49.916Z,5.50
2023-04-26T03:37:15.740Z,5.80
2023-04-26T03:47:41.534Z,4.50
2023-04-26T03:58:08.326Z,4.80
2023-04-26T04:08:33.940Z,4.30
2023-04-26T04:18:59.762Z,5.30
2023-04-26T04:29:25.402Z,5.70
2023-04-26T04:39:51.494Z,5.80
2023-04-26T04:50:17.872Z,6.50
2023-04-26T05:00:43.569Z,5.40
2023-04-26T05:11:09.433Z,5.00
2023-04-26T05:21:35.277Z,4.80
2023-04-26T05:32:01.338Z,4.30
2023-04-26T05:42:27.261Z,2.70
2023-04-26T05:52:53.280Z,3.90
2023-04-26T06:03:19.682Z,3.40
2023-04-26T06:13:45.794Z,3.00
2023-04-26T06:24:11.899Z,3.20
2023-04-26T06:34:38.495Z,2.50
2023-04-26T06:45:05.191Z,2.30
2023-04-26T06:55:32.529Z,2.50
2023-04-26T07:16:23.444Z,1.80
2023-04-26T07:26:49.733Z,2.00
2023-04-26T07:37:16.199Z,2.10
2023-04-26T07:47:42.076Z,3.20
2023-04-26T07:58:08.457Z,2.30
2023-04-26T08:08:35.254Z,2.00
2023-04-26T08:19:03.679Z,2.20
2023-04-26T08:29:29.639Z,2.20
2023-04-26T08:39:55.312Z,1.50
2023-04-26T08:50:24.867Z,1.50
2023-04-26T09:00:51.584Z,1.40
2023-04-26T09:11:17.684Z,1.50
2023-04-26T09:21:46.426Z,1.10
2023-04-26T09:32:12.050Z,2.60
2023-04-26T09:42:38.541Z,1.30
2023-04-26T09:53:05.292Z,1.20
2023-04-26T10:03:33.237Z,1.80
2023-04-26T10:13:59.974Z,1.40
2023-04-26T10:24:27.375Z,1.00
2023-04-26T10:35:12.903Z,1.60
2023-04-26T10:45:40.243Z,1.20
2023-04-26T10:56:07.867Z,0.90
2023-04-26T11:06:51.202Z,1.00
2023-04-26T11:17:17.217Z,1.20
2023-04-26T11:27:46.061Z,0.60
2023-04-26T11:48:37.515Z,1.30
2023-04-26T11:59:03.936Z,1.30
2023-04-26T12:09:29.994Z,21.20
2023-04-26T12:19:56.296Z,2.40
2023-04-26T12:30:22.778Z,1.40
2023-04-26T12:40:48.737Z,1.60
2023-04-26T12:51:15.238Z,0.90
2023-04-26T13:01:41.240Z,0.90
2023-04-26T13:12:08.115Z,0.80
2023-04-26T13:22:34.007Z,1.10
2023-04-26T13:33:00.451Z,1.10
2023-04-26T13:43:26.647Z,1.10
2023-04-26T13:53:52.754Z,1.20
2023-04-26T14:04:19.081Z,1.40
2023-04-26T14:14:46.416Z,1.00
2023-04-26T14:25:13.035Z,0.90
2023-04-26T14:35:38.874Z,0.80
2023-04-26T14:46:04.741Z,1.20
2023-04-26T14:56:35.387Z,1.00
2023-04-26T15:07:01.127Z,1.10
2023-04-26T15:17:27.354Z,1.10
2023-04-26T15:27:53.405Z,1.40
2023-04-26T15:38:19.054Z,1.50
2023-04-26T15:48:44.952Z,1.00
2023-04-26T15:59:10.272Z,1.30
2023-04-26T16:09:37.363Z,1.10
2023-04-26T16:20:07.484Z,1.20
2023-04-26T16:30:33.261Z,1.10
2023-04-26T16:41:01.491Z,1.30
2023-04-26T16:51:27.927Z,1.50
2023-04-26T17:01:54.327Z,1.40
2023-04-26T17:12:19.826Z,2.10
2023-04-26T17:22:45.831Z,2.40
2023-04-26T17:33:11.580Z,2.80
2023-04-26T17:43:37.576Z,1.80
2023-04-26T17:54:03.280Z,2.10
2023-04-26T18:04:29.252Z,4.20
2023-04-26T18:14:55.070Z,4.30
2023-04-26T18:25:21.200Z,4.50
2023-04-26T18:35:49.469Z,4.80
2023-04-26T18:56:41.439Z,5.50
2023-04-26T19:07:07.044Z,6.70
2023-04-26T19:17:33.639Z,11.50
2023-04-26T19:27:59.038Z,4.90
2023-04-26T19:38:25.905Z,4.70
2023-04-26T19:48:51.466Z,4.50
2023-04-26T19:59:17.205Z,5.90
2023-04-26T20:09:43.193Z,8.40
2023-04-26T20:20:12.172Z,14.80
2023-04-26T20:30:38.201Z,12.30
2023-04-26T20:41:04.569Z,15.50
2023-04-26T20:51:30.559Z,14.90
2023-04-26T21:01:57.036Z,15.20
2023-04-26T21:12:22.937Z,13.30
2023-04-26T21:22:48.714Z,19.00
2023-04-26T21:33:16.171Z,21.00
2023-04-26T21:43:41.587Z,19.20
2023-04-26T21:54:07.557Z,18.70
2023-04-26T22:04:33.396Z,19.80
2023-04-26T22:14:59.180Z,17.60
2023-04-26T22:25:26.736Z,23.40
2023-04-26T22:35:54.301Z,23.30
2023-04-26T22:46:19.897Z,29.20
2023-04-26T22:56:45.466Z,31.70
2023-04-26T23:07:11.343Z,33.10
2023-04-26T23:17:37.186Z,31.00
2023-04-26T23:28:03.322Z,26.60
2023-04-26T23:38:28.776Z,29.20
2023-04-26T23:48:54.806Z,33.20
2023-04-26T23:59:20.615Z,28.90
